createdAt,value
2023-05-25T00:00:14.193Z,100825.63
2023-05-25T00:05:15.813Z,100811.75
2023-05-25T00:10:17.299Z,100817.22
2023-05-25T00:15:19.027Z,100816.22
2023-05-25T00:20:20.782Z,100813.84
2023-05-25T00:25:22.161Z,100813.78
2023-05-25T00:30:23.580Z,100804.34
2023-05-25T00:35:24.956Z,100805.91
2023-05-25T00:40:26.352Z,100790.66
2023-05-25T00:45:27.785Z,100810.81
2023-05-25T00:50:38.036Z,100801.97
2023-05-25T00:55:46.146Z,100806.31
2023-05-25T01:00:49.652Z,100811.44
2023-05-25T01:05:54.083Z,100811.56
2023-05-25T01:10:57.300Z,100811.44
2023-05-25T01:15:58.941Z,100807.06
2023-05-25T01:21:13.375Z,100813.03
2023-05-25T01:26:16.658Z,100817.38
2023-05-25T01:31:20.785Z,100823.56
2023-05-25T01:36:22.340Z,100831.03
2023-05-25T01:41:23.715Z,100815.72
2023-05-25T01:46:36.934Z,100826.59
2023-05-25T01:52:04.142Z,100823.34
2023-05-25T01:57:13.509Z,100835.75
2023-05-25T02:02:17.541Z,100829.91
2023-05-25T02:07:19.014Z,100838.16
2023-05-25T02:12:20.466Z,100834.28
2023-05-25T02:17:21.886Z,100824.09
2023-05-25T02:22:23.433Z,100825.44
2023-05-25T02:27:24.795Z,100812.97
2023-05-25T02:32:26.208Z,100812.09
2023-05-25T02:37:27.564Z,100812.00
2023-05-25T02:42:28.904Z,100815.88
2023-05-25T02:47:30.410Z,100814.28
2023-05-25T02:52:32.613Z,100810.28
2023-05-25T02:57:34.079Z,100817.06
2023-05-25T03:02:35.487Z,100812.25
2023-05-25T03:07:37.088Z,100817.69
2023-05-25T03:12:38.515Z,100818.91
2023-05-25T03:17:40.160Z,100818.03
2023-05-25T03:22:41.649Z,100827.03
2023-05-25T03:27:43.091Z,100827.75
2023-05-25T03:32:44.545Z,100843.41
2023-05-25T03:37:45.941Z,100838.44
2023-05-25T03:42:47.282Z,100833.09
2023-05-25T03:47:49.975Z,100837.97
2023-05-25T03:52:51.759Z,100842.22
2023-05-25T03:57:53.160Z,100851.53
2023-05-25T04:02:54.610Z,100845.97
2023-05-25T04:07:56.091Z,100854.47
2023-05-25T04:12:57.546Z,100860.91
2023-05-25T04:17:59.599Z,100858.84
2023-05-25T04:23:01.261Z,100869.75
2023-05-25T04:28:02.569Z,100874.25
2023-05-25T04:33:04.408Z,100878.63
2023-05-25T04:38:07.034Z,100896.72
2023-05-25T04:43:09.804Z,100893.56
2023-05-25T04:48:13.107Z,100897.31
2023-05-25T04:53:14.491Z,100902.78
2023-05-25T04:58:16.492Z,100911.16
2023-05-25T05:03:18.273Z,100921.13
2023-05-25T05:08:19.952Z,100919.78
2023-05-25T05:13:21.397Z,100919.16
2023-05-25T05:18:22.788Z,100919.56
2023-05-25T05:23:24.230Z,100926.22
2023-05-25T05:28:27.357Z,100944.94
2023-05-25T05:33:28.859Z,100942.50
2023-05-25T05:38:30.835Z,100948.66
2023-05-25T05:43:32.206Z,100951.84
2023-05-25T05:48:33.698Z,100955.00
2023-05-25T05:53:38.009Z,100956.44
2023-05-25T05:58:39.475Z,100960.81
2023-05-25T06:03:40.904Z,100966.00
2023-05-25T06:08:43.292Z,100962.72
2023-05-25T06:13:46.449Z,100964.72
2023-05-25T06:18:48.050Z,100971.88
2023-05-25T06:23:49.462Z,100971.91
2023-05-25T06:28:51.171Z,100961.63
2023-05-25T06:33:52.511Z,100962.16
2023-05-25T06:38:53.966Z,100967.41
2023-05-25T06:43:55.414Z,100958.47
2023-05-25T06:48:56.907Z,100962.59
2023-05-25T06:53:58.268Z,100972.06
2023-05-25T06:58:59.826Z,100969.38
2023-05-25T07:04:01.554Z,100956.13
2023-05-25T07:09:03.330Z,100976.50
2023-05-25T07:14:04.677Z,100973.69
2023-05-25T07:19:06.065Z,100964.97
2023-05-25T07:24:07.744Z,100966.97
2023-05-25T07:29:10.625Z,100959.38
2023-05-25T07:34:11.980Z,100970.19
2023-05-25T07:39:13.747Z,100964.94
2023-05-25T07:44:15.083Z,100960.31
2023-05-25T07:49:16.566Z,100969.63
2023-05-25T07:54:17.902Z,100969.72
2023-05-25T07:59:19.507Z,100970.38
2023-05-25T08:04:20.919Z,100969.66
2023-05-25T08:09:22.589Z,100964.06
2023-05-25T08:14:24.129Z,100967.97
2023-05-25T08:19:25.513Z,100951.31
2023-05-25T08:24:26.872Z,100975.03
2023-05-25T08:29:28.244Z,100975.91
2023-05-25T08:34:29.642Z,100981.84
2023-05-25T08:39:32.861Z,100958.16
2023-05-25T08:44:36.885Z,100973.22
2023-05-25T08:49:39.860Z,100962.06
2023-05-25T08:54:44.466Z,100958.16
2023-05-25T09:00:10.477Z,100973.16
2023-05-25T09:05:13.616Z,100965.63
2023-05-25T09:10:15.491Z,100965.44
2023-05-25T09:15:16.937Z,100962.84
2023-05-25T09:20:19.359Z,100963.41
2023-05-25T09:25:20.802Z,100900.59
2023-05-25T09:30:22.451Z,100972.44
2023-05-25T09:35:24.436Z,100975.72
2023-05-25T09:40:26.171Z,100978.31
2023-05-25T09:45:27.756Z,100970.56
2023-05-25T09:50:29.719Z,100977.22
2023-05-25T09:55:44.009Z,100966.47
2023-05-25T10:00:54.725Z,100974.94
2023-05-25T10:05:56.397Z,100978.63
2023-05-25T10:10:58.278Z,100974.22
2023-05-25T10:16:01.308Z,100974.91
2023-05-25T10:21:05.029Z,100982.94
2023-05-25T10:26:09.315Z,100968.44
2023-05-25T10:31:12.368Z,100964.22
2023-05-25T10:36:14.969Z,100967.44
2023-05-25T10:41:17.904Z,100961.16
2023-05-25T10:46:19.499Z,100957.91
2023-05-25T10:51:22.354Z,100965.50
2023-05-25T10:56:23.777Z,100945.38
2023-05-25T11:01:25.727Z,100954.53
2023-05-25T11:06:44.163Z,100951.50
2023-05-25T11:11:48.689Z,100950.53
2023-05-25T11:17:13.871Z,100940.34
2023-05-25T11:22:19.174Z,100944.63
2023-05-25T11:27:31.354Z,100940.44
2023-05-25T11:32:32.769Z,100935.75
2023-05-25T11:37:34.494Z,100914.13
2023-05-25T11:42:36.035Z,100917.34
2023-05-25T11:47:38.208Z,100926.00
2023-05-25T11:52:40.109Z,100912.81
2023-05-25T11:57:41.464Z,100921.13
2023-05-25T12:02:43.556Z,100911.78
2023-05-25T12:07:46.874Z,100918.44
2023-05-25T12:12:50.320Z,100908.22
2023-05-25T12:17:53.590Z,100902.78
2023-05-25T12:22:55.285Z,100879.03
2023-05-25T12:28:13.536Z,100892.69
2023-05-25T12:33:15.754Z,100887.47
2023-05-25T12:38:19.269Z,100881.63
2023-05-25T12:43:21.503Z,100875.47
2023-05-25T12:48:26.719Z,100876.13
2023-05-25T12:53:29.029Z,100864.22
2023-05-25T12:58:30.588Z,100873.38
2023-05-25T13:03:32.169Z,100879.88
2023-05-25T13:08:33.752Z,100872.56
2023-05-25T13:13:35.878Z,100873.59
2023-05-25T13:18:37.351Z,100861.50
2023-05-25T13:23:38.700Z,100848.50
2023-05-25T13:28:40.584Z,100860.06
2023-05-25T13:33:42.118Z,100856.84
2023-05-25T13:38:45.089Z,100857.69
2023-05-25T13:43:47.338Z,100858.31
2023-05-25T13:48:48.732Z,100847.97
2023-05-25T13:53:50.412Z,100846.91
2023-05-25T13:58:51.982Z,100847.44
2023-05-25T14:03:53.509Z,100844.16
2023-05-25T14:08:55.128Z,100841.81
2023-05-25T14:13:56.621Z,100843.34
2023-05-25T14:18:57.985Z,100843.34
2023-05-25T14:23:59.690Z,100844.16
2023-05-25T14:29:02.419Z,100839.13
2023-05-25T14:34:03.801Z,100842.13
2023-05-25T14:39:05.183Z,100824.22
2023-05-25T14:44:06.542Z,100834.97
2023-05-25T14:49:07.874Z,100831.63
2023-05-25T14:54:11.105Z,100834.59
2023-05-25T14:59:12.521Z,100834.91
2023-05-25T15:04:14.284Z,100825.06
2023-05-25T15:09:16.860Z,100828.59
2023-05-25T15:14:18.318Z,100829.63
2023-05-25T15:19:19.725Z,100827.63
2023-05-25T15:24:21.512Z,100821.66
2023-05-25T15:29:22.898Z,100830.84
2023-05-25T15:34:24.289Z,100835.59
2023-05-25T15:39:25.619Z,100830.44
2023-05-25T15:44:27.019Z,100828.47
2023-05-25T15:49:28.440Z,100826.34
2023-05-25T15:54:29.914Z,100819.13
2023-05-25T15:59:31.353Z,100817.03
2023-05-25T16:04:32.860Z,100826.09
2023-05-25T16:09:34.344Z,100831.09
2023-05-25T16:14:36.117Z,100831.75
2023-05-25T16:19:37.491Z,100823.25
2023-05-25T16:24:38.930Z,100819.94
2023-05-25T16:29:40.448Z,100811.88
2023-05-25T16:34:41.971Z,100830.03
2023-05-25T16:39:43.495Z,100820.38
2023-05-25T16:44:44.953Z,100811.25
2023-05-25T16:49:46.314Z,100804.88
2023-05-25T16:54:47.869Z,100812.41
2023-05-25T16:59:49.685Z,100799.88
2023-05-25T17:04:52.173Z,100811.06
2023-05-25T17:09:53.524Z,100806.19
2023-05-25T17:14:54.888Z,100816.53
2023-05-25T17:19:56.362Z,100822.28
2023-05-25T17:24:58.018Z,100818.94
2023-05-25T17:29:59.400Z,100823.34
2023-05-25T17:35:00.791Z,100820.34
2023-05-25T17:40:02.207Z,100825.13
2023-05-25T17:45:03.948Z,100809.94
2023-05-25T17:50:05.878Z,100825.16
2023-05-25T17:55:07.828Z,100829.88
2023-05-25T18:00:09.776Z,100831.81
2023-05-25T18:05:11.201Z,100833.00
2023-05-25T18:10:14.562Z,100830.50
2023-05-25T18:15:16.167Z,100841.66
2023-05-25T18:20:17.710Z,100840.69
2023-05-25T18:25:19.446Z,100837.97
2023-05-25T18:30:20.883Z,100836.31
2023-05-25T18:35:22.269Z,100837.16
2023-05-25T18:40:23.851Z,100833.56
2023-05-25T18:45:26.059Z,100845.72
2023-05-25T18:50:27.533Z,100851.47
2023-05-25T18:55:29.466Z,100842.50
2023-05-25T19:00:31.071Z,100851.75
2023-05-25T19:05:32.699Z,100859.34
2023-05-25T19:10:34.155Z,100869.13
2023-05-25T19:15:35.996Z,100875.50
2023-05-25T19:20:37.494Z,100854.19
2023-05-25T19:25:39.020Z,100879.03
2023-05-25T19:30:40.635Z,100891.31
2023-05-25T19:35:42.361Z,100893.56
2023-05-25T19:40:44.038Z,100903.47
2023-05-25T19:45:45.733Z,100904.94
2023-05-25T19:50:47.454Z,100923.38
2023-05-25T19:55:48.904Z,100923.69
2023-05-25T20:00:50.466Z,100935.84
2023-05-25T20:05:51.908Z,100929.47
2023-05-25T20:10:53.897Z,100931.69
2023-05-25T20:15:55.692Z,100942.53
2023-05-25T20:20:57.124Z,100951.63
2023-05-25T20:25:58.949Z,100944.28
2023-05-25T20:31:00.425Z,100942.91
2023-05-25T20:36:01.890Z,100952.97
2023-05-25T20:41:03.349Z,100948.66
2023-05-25T20:46:07.070Z,100955.88
2023-05-25T20:51:08.650Z,100962.56
2023-05-25T20:56:10.045Z,100964.06
2023-05-25T21:01:11.747Z,100969.72
2023-05-25T21:06:13.177Z,100972.34
2023-05-25T21:11:14.649Z,100969.78
2023-05-25T21:16:16.194Z,100970.94
2023-05-25T21:21:17.596Z,100975.75
2023-05-25T21:26:18.921Z,100985.81
2023-05-25T21:31:20.494Z,100988.41
2023-05-25T21:36:21.940Z,100983.47
2023-05-25T21:41:23.482Z,100996.91
2023-05-25T21:46:25.194Z,101006.66
2023-05-25T21:51:27.069Z,101008.09
2023-05-25T21:56:28.626Z,101012.63
2023-05-25T22:01:30.028Z,101021.81
2023-05-25T22:06:32.767Z,101017.72
2023-05-25T22:11:34.327Z,101011.06
2023-05-25T22:16:35.835Z,101010.63
2023-05-25T22:21:37.196Z,101023.91
2023-05-25T22:26:38.532Z,101020.94
2023-05-25T22:31:40.054Z,101027.31
2023-05-25T22:36:41.384Z,101024.19
2023-05-25T22:41:42.745Z,101031.09
2023-05-25T22:46:44.194Z,101035.50
2023-05-25T22:51:45.645Z,101039.53
2023-05-25T22:56:46.993Z,101038.53
2023-05-25T23:01:48.398Z,101027.78
2023-05-25T23:06:49.798Z,101031.81
2023-05-25T23:11:52.208Z,101027.31
2023-05-25T23:16:53.641Z,101026.41
2023-05-25T23:21:56.571Z,101027.47
2023-05-25T23:26:57.971Z,101030.31
2023-05-25T23:31:59.383Z,101046.38
2023-05-25T23:37:01.438Z,101045.94
2023-05-25T23:42:03.376Z,101044.34
2023-05-25T23:47:05.739Z,101042.94
2023-05-25T23:52:07.096Z,101045.50
2023-05-25T23:57:08.444Z,101048.03
